This is the latest recevied weather packets stored in our database for station/object OE-11272. If no packets are shown the sender has not sent any weather packets the latest 10 day(s).
| Time | Temp. | Humidity | Pressure | Rain* | Wind** | Luminosity | Snow |
|---|---|---|---|---|---|---|---|
| 1787742324 | 24.44° C | 54% | 1015.6 hPa | 0 mm | - | 806 W/m² | - |
| 1787741724 | 24.44° C | 56% | 1016 hPa | 0 mm | - | 799 W/m² | - |
| 1787740898 | 24.44° C | 54% | 1016.1 hPa | 0 mm | - | 787 W/m² | - |
| 1787740525 | 23.33° C | 57% | 1016.4 hPa | 0 mm | - | 787 W/m² | - |
| 1787739925 | 23.33° C | 56% | 1016.6 hPa | 0 mm | - | 787 W/m² | - |
| 1787739097 | 22.78° C | 58% | 1016.8 hPa | 0 mm | - | 775 W/m² | - |
| 1787738725 | 22.78° C | 59% | 1017 hPa | 0 mm | - | 768 W/m² | - |
| 1787738125 | 22.78° C | 62% | 1017.1 hPa | 0 mm | - | 756 W/m² | - |
| 1787737298 | 21.67° C | 63% | 1017.6 hPa | 0 mm | - | 743 W/m² | - |
| 1787736924 | 22.22° C | 65% | 1017.5 hPa | 0 mm | - | 725 W/m² | - |
| 1787736325 | 22.22° C | 66% | 1017.6 hPa | 0 mm | - | 712 W/m² | - |
| 1787735498 | 21.11° C | 63% | 1017.9 hPa | 0 mm | - | 693 W/m² | - |
| 1787735125 | 20.56° C | 66% | 1017.8 hPa | 0 mm | - | 675 W/m² | - |
| 1787733698 | 20.56° C | 68% | 1018 hPa | 0 mm | - | 637 W/m² | - |
| 1787733325 | 20.56° C | 70% | 1018 hPa | 0 mm | - | 612 W/m² | - |
| 1787732724 | 20° C | 71% | 1018.1 hPa | 0 mm | - | 593 W/m² | - |
| 1787731898 | 20° C | 74% | 1018.1 hPa | 0 mm | - | 568 W/m² | - |
| 1787731525 | 19.44° C | 74% | 1018.4 hPa | 0 mm | - | 543 W/m² | - |
| 1787730925 | 19.44° C | 76% | 1018.5 hPa | 0 mm | - | 518 W/m² | - |
| 1787730098 | 18.89° C | 77% | 1018.6 hPa | 0 mm | - | 487 W/m² | - |
| 1787729725 | 18.33° C | 78% | 1018.7 hPa | 0 mm | - | 462 W/m² | - |
| 1787729125 | 18.33° C | 81% | 1018.7 hPa | 0 mm | - | 437 W/m² | - |
| 1787728297 | 17.78° C | 83% | 1018.7 hPa | 0 mm | - | 412 W/m² | - |
| 1787727925 | 17.78° C | 83% | 1018.7 hPa | 0 mm | - | 387 W/m² | - |
| 1787727325 | 17.22° C | 83% | 1019 hPa | 0 mm | - | 362 W/m² | - |
* Rain latest hour (hover to see other rain measurements)
** Current wind speed in m/s (hover to see current wind gust speed)